createdAt,value
2018-09-04T00:02:10.262Z,13.71
2018-09-04T00:04:38.893Z,13.68
2018-09-04T00:07:07.428Z,13.67
2018-09-04T00:09:36.005Z,13.68
2018-09-04T00:12:04.642Z,13.67
2018-09-04T00:14:33.441Z,13.65
2018-09-04T00:17:02.013Z,13.63
2018-09-04T00:19:30.701Z,13.58
2018-09-04T00:21:59.189Z,13.57
2018-09-04T00:24:27.812Z,13.55
2018-09-04T00:26:56.394Z,13.52
2018-09-04T00:29:25.062Z,13.52
2018-09-04T00:31:53.558Z,13.51
2018-09-04T00:34:22.185Z,13.48
2018-09-04T00:36:50.658Z,13.47
2018-09-04T00:39:19.143Z,13.46
2018-09-04T00:41:47.778Z,13.44
2018-09-04T00:44:16.462Z,13.40
2018-09-04T00:46:45.170Z,12.80
2018-09-04T00:49:13.654Z,13.36
2018-09-04T00:51:42.424Z,13.34
2018-09-04T00:54:10.966Z,13.32
2018-09-04T00:56:39.506Z,13.30
2018-09-04T00:59:08.204Z,13.25
2018-09-04T01:01:36.898Z,13.27
2018-09-04T01:04:05.644Z,13.25
2018-09-04T01:06:34.434Z,13.23
2018-09-04T01:09:03.778Z,13.22
2018-09-04T01:11:32.247Z,13.21
2018-09-04T01:14:01.820Z,13.17
2018-09-04T01:16:30.414Z,13.15
2018-09-04T01:18:58.966Z,13.14
2018-09-04T01:21:27.630Z,13.13
2018-09-04T01:23:56.100Z,13.10
2018-09-04T01:26:24.790Z,13.08
2018-09-04T01:28:53.318Z,13.07
2018-09-04T01:31:22.066Z,13.05
2018-09-04T01:33:50.523Z,13.04
2018-09-04T01:36:19.139Z,13.02
2018-09-04T01:38:47.757Z,13.01
2018-09-04T01:41:16.303Z,12.99
2018-09-04T01:43:44.982Z,12.89
2018-09-04T01:46:13.440Z,12.93
2018-09-04T01:48:42.846Z,12.93
2018-09-04T01:51:11.541Z,12.96
2018-09-04T01:53:40.197Z,12.91
2018-09-04T01:56:08.751Z,12.93
2018-09-04T01:58:37.350Z,12.89
2018-09-04T02:01:06.037Z,12.87
2018-09-04T02:03:34.600Z,12.85
2018-09-04T02:06:03.218Z,12.29
2018-09-04T02:08:31.706Z,12.81
2018-09-04T02:11:00.834Z,12.79
2018-09-04T02:13:29.322Z,12.77
2018-09-04T02:15:58.069Z,12.64
2018-09-04T02:18:26.674Z,12.73
2018-09-04T02:20:55.204Z,12.69
2018-09-04T02:23:23.804Z,12.69
2018-09-04T02:25:52.276Z,12.66
2018-09-04T02:28:21.188Z,12.57
2018-09-04T02:30:49.670Z,12.58
2018-09-04T02:33:18.354Z,12.58
2018-09-04T02:35:46.959Z,12.57
2018-09-04T02:38:15.738Z,12.55
2018-09-04T02:40:44.210Z,12.54
2018-09-04T02:43:12.721Z,12.54
2018-09-04T02:45:41.595Z,12.56
2018-09-04T02:48:10.181Z,12.53
2018-09-04T02:50:38.712Z,12.54
2018-09-04T02:53:07.194Z,12.53
2018-09-04T02:55:35.840Z,12.53
2018-09-04T02:58:04.390Z,12.52
2018-09-04T03:00:32.879Z,12.50
2018-09-04T03:03:01.498Z,12.40
2018-09-04T03:05:29.970Z,12.47
2018-09-04T03:07:59.374Z,12.48
2018-09-04T03:10:27.848Z,12.12
2018-09-04T03:12:56.441Z,12.44
2018-09-04T03:15:25.096Z,12.07
2018-09-04T03:17:53.729Z,12.41
2018-09-04T03:20:22.320Z,12.42
2018-09-04T03:22:50.814Z,12.39
2018-09-04T03:25:19.534Z,12.39
2018-09-04T03:27:48.011Z,12.37
2018-09-04T03:30:16.672Z,12.36
2018-09-04T03:32:45.282Z,12.33
2018-09-04T03:35:14.039Z,12.31
2018-09-04T03:37:42.675Z,12.30
2018-09-04T03:40:11.274Z,12.31
2018-09-04T03:42:40.019Z,12.31
2018-09-04T03:45:09.235Z,12.29
2018-09-04T03:47:37.936Z,12.31
2018-09-04T03:50:08.179Z,12.32
2018-09-04T03:52:36.812Z,12.31
2018-09-04T03:55:05.434Z,12.29
2018-09-04T03:57:34.103Z,11.99
2018-09-04T04:00:02.614Z,12.29
2018-09-04T04:02:31.225Z,12.29
2018-09-04T04:04:59.742Z,12.29
2018-09-04T04:07:28.439Z,12.31
2018-09-04T04:09:56.959Z,12.32
2018-09-04T04:12:25.483Z,12.32
2018-09-04T04:17:28.004Z,12.38
2018-09-04T04:19:56.650Z,12.45
2018-09-04T04:22:25.195Z,12.48
2018-09-04T04:24:53.737Z,12.46
2018-09-04T04:27:22.318Z,12.43
2018-09-04T04:29:51.190Z,12.41
2018-09-04T04:32:19.872Z,12.41
2018-09-04T04:34:48.867Z,12.39
2018-09-04T04:37:17.466Z,12.37
2018-09-04T04:39:46.095Z,12.36
2018-09-04T04:42:14.720Z,12.34
2018-09-04T04:44:43.342Z,12.34
2018-09-04T04:47:11.868Z,12.36
2018-09-04T04:49:40.404Z,12.38
2018-09-04T04:52:09.094Z,11.98
2018-09-04T04:54:37.732Z,12.43
2018-09-04T04:57:06.593Z,12.42
2018-09-04T04:59:35.105Z,12.40
2018-09-04T05:02:03.747Z,12.41
2018-09-04T05:04:32.231Z,12.42
2018-09-04T05:07:00.734Z,12.43
2018-09-04T05:09:29.558Z,12.45
2018-09-04T05:11:58.106Z,12.44
2018-09-04T05:14:26.769Z,12.46
2018-09-04T05:16:55.388Z,12.48
2018-09-04T05:19:24.325Z,12.45
2018-09-04T05:21:52.861Z,12.52
2018-09-04T05:26:41.502Z,12.57
2018-09-04T05:29:10.186Z,12.59
2018-09-04T05:31:43.008Z,12.62
2018-09-04T05:34:11.790Z,12.67
2018-09-04T05:36:40.387Z,12.74
2018-09-04T05:39:10.553Z,12.79
2018-09-04T05:41:39.021Z,12.89
2018-09-04T05:44:07.754Z,12.94
2018-09-04T05:46:50.187Z,13.02
2018-09-04T05:49:21.106Z,12.64
2018-09-04T05:51:49.686Z,13.16
2018-09-04T05:54:18.674Z,13.27
2018-09-04T05:56:47.199Z,13.33
2018-09-04T05:59:16.012Z,13.40
2018-09-04T06:01:44.502Z,13.47
2018-09-04T06:04:13.061Z,13.56
2018-09-04T06:06:41.967Z,13.67
2018-09-04T06:09:10.498Z,13.77
2018-09-04T06:11:39.390Z,13.85
2018-09-04T06:14:08.355Z,13.94
2018-09-04T06:16:37.422Z,14.04
2018-09-04T06:19:08.978Z,14.15
2018-09-04T06:21:41.825Z,14.29
2018-09-04T06:24:13.366Z,14.42
2018-09-04T06:26:52.896Z,14.56
2018-09-04T06:29:24.808Z,14.69
2018-09-04T06:31:53.442Z,14.80
2018-09-04T06:34:22.587Z,14.67
2018-09-04T06:36:51.163Z,14.98
2018-09-04T06:39:22.109Z,15.07
2018-09-04T06:41:50.922Z,15.14
2018-09-04T06:44:19.821Z,15.20
2018-09-04T06:46:48.373Z,15.25
2018-09-04T06:49:17.202Z,15.29
2018-09-04T06:51:45.913Z,15.36
2018-09-04T06:54:14.587Z,15.43
2018-09-04T06:56:43.150Z,15.54
2018-09-04T06:59:11.966Z,15.57
2018-09-04T07:01:40.560Z,15.50
2018-09-04T07:04:09.110Z,15.75
2018-09-04T07:06:37.886Z,15.79
2018-09-04T07:09:09.700Z,15.83
2018-09-04T07:11:38.274Z,15.87
2018-09-04T07:14:07.062Z,15.93
2018-09-04T07:16:35.730Z,15.47
2018-09-04T07:19:04.275Z,16.06
2018-09-04T07:21:32.847Z,16.11
2018-09-04T07:24:01.495Z,16.05
2018-09-04T07:26:30.186Z,16.01
2018-09-04T07:28:59.058Z,16.02
2018-09-04T07:31:28.294Z,16.14
2018-09-04T07:33:56.867Z,16.22
2018-09-04T07:36:25.532Z,16.31
2018-09-04T07:38:54.379Z,16.39
2018-09-04T07:41:22.948Z,16.43
2018-09-04T07:43:52.754Z,16.43
2018-09-04T07:46:21.228Z,16.53
2018-09-04T07:48:49.898Z,16.61
2018-09-04T07:51:18.351Z,16.70
2018-09-04T07:53:46.982Z,16.84
2018-09-04T07:56:16.643Z,16.36
2018-09-04T07:58:45.446Z,17.02
2018-09-04T08:01:14.239Z,17.13
2018-09-04T08:03:42.790Z,17.22
2018-09-04T08:06:11.606Z,16.73
2018-09-04T08:08:40.186Z,17.32
2018-09-04T08:11:09.010Z,17.34
2018-09-04T08:13:37.498Z,17.34
2018-09-04T08:16:06.545Z,17.39
2018-09-04T08:18:35.062Z,17.54
2018-09-04T08:21:03.531Z,17.72
2018-09-04T08:23:32.170Z,17.88
2018-09-04T08:26:00.745Z,17.99
2018-09-04T08:28:29.620Z,17.73
2018-09-04T08:30:58.205Z,18.28
2018-09-04T08:33:26.764Z,18.48
2018-09-04T08:35:55.286Z,18.71
2018-09-04T08:38:23.974Z,18.64
2018-09-04T08:40:52.547Z,18.90
2018-09-04T08:43:21.133Z,18.95
2018-09-04T08:45:49.723Z,19.08
2018-09-04T08:48:19.449Z,19.20
2018-09-04T08:50:48.155Z,19.23
2018-09-04T08:53:17.550Z,19.24
2018-09-04T08:55:46.385Z,19.29
2018-09-04T08:58:14.862Z,19.40
2018-09-04T09:00:43.493Z,19.52
2018-09-04T09:03:12.014Z,19.65
2018-09-04T09:05:40.703Z,19.80
2018-09-04T09:08:09.206Z,19.69
2018-09-04T09:10:37.695Z,19.95
2018-09-04T09:13:06.602Z,19.90
2018-09-04T09:15:35.090Z,19.94
2018-09-04T09:18:03.731Z,19.99
2018-09-04T09:20:32.218Z,20.04
2018-09-04T09:23:00.812Z,20.14
2018-09-04T09:25:29.297Z,20.15
2018-09-04T09:27:57.887Z,20.23
2018-09-04T09:30:26.407Z,20.41
2018-09-04T09:32:54.946Z,20.55
2018-09-04T09:35:23.542Z,20.37
2018-09-04T09:37:52.258Z,20.72
2018-09-04T09:40:20.974Z,20.76
2018-09-04T09:42:49.564Z,20.83
2018-09-04T09:45:18.171Z,20.83
2018-09-04T09:47:48.614Z,20.85
2018-09-04T09:50:17.858Z,20.83
2018-09-04T09:52:46.938Z,20.94
2018-09-04T09:55:15.492Z,21.04
2018-09-04T09:57:44.001Z,21.06
2018-09-04T10:00:17.705Z,21.28
2018-09-04T10:02:50.126Z,21.42
2018-09-04T10:05:18.838Z,21.48
2018-09-04T10:07:47.424Z,21.59
2018-09-04T10:10:15.960Z,21.66
2018-09-04T10:12:44.452Z,21.73
2018-09-04T10:15:13.314Z,21.74
2018-09-04T10:17:41.859Z,21.74
2018-09-04T10:20:10.640Z,21.75
2018-09-04T10:22:39.530Z,21.79
2018-09-04T10:25:09.122Z,21.80
2018-09-04T10:27:38.005Z,21.83
2018-09-04T10:30:07.335Z,21.78
2018-09-04T10:32:35.886Z,21.74
2018-09-04T10:35:04.450Z,21.77
2018-09-04T10:37:33.218Z,21.85
2018-09-04T10:40:07.240Z,21.88
2018-09-04T10:42:35.719Z,21.90
2018-09-04T10:45:04.379Z,21.96
2018-09-04T10:47:32.958Z,22.06
2018-09-04T10:50:01.498Z,22.19
2018-09-04T10:52:30.219Z,21.94
2018-09-04T10:54:58.946Z,22.40
2018-09-04T10:57:27.562Z,22.51
2018-09-04T10:59:56.209Z,22.64
2018-09-04T11:02:24.883Z,22.71
2018-09-04T11:04:53.454Z,22.72
2018-09-04T11:07:22.024Z,22.73
2018-09-04T11:09:51.661Z,22.81
2018-09-04T11:12:20.166Z,22.85
2018-09-04T11:14:48.936Z,22.86
2018-09-04T11:17:17.421Z,23.02
2018-09-04T11:19:45.918Z,23.12
2018-09-04T11:22:14.534Z,23.02
2018-09-04T11:24:43.091Z,23.06
2018-09-04T11:27:11.570Z,23.12
2018-09-04T11:29:40.079Z,23.18
2018-09-04T11:32:08.821Z,22.90
2018-09-04T11:34:37.395Z,22.95
2018-09-04T11:37:06.050Z,23.04
2018-09-04T11:39:34.514Z,22.93
2018-09-04T11:42:03.060Z,22.93
2018-09-04T11:44:31.534Z,23.01
2018-09-04T11:47:01.763Z,23.13
2018-09-04T11:49:30.278Z,23.06
2018-09-04T11:51:58.752Z,23.08
2018-09-04T11:54:28.180Z,22.98
2018-09-04T11:56:56.669Z,23.01
2018-09-04T11:59:25.842Z,23.15
2018-09-04T12:01:57.280Z,23.33
2018-09-04T12:04:25.927Z,23.39
2018-09-04T12:06:54.462Z,23.40
2018-09-04T12:09:23.043Z,22.89
2018-09-04T12:11:54.145Z,23.42
2018-09-04T12:14:23.123Z,23.17
2018-09-04T12:16:51.910Z,23.19
2018-09-04T12:19:21.323Z,23.24
2018-09-04T12:21:49.935Z,23.16
2018-09-04T12:24:18.989Z,23.38
2018-09-04T12:26:47.489Z,23.51
2018-09-04T12:29:18.058Z,23.55
2018-09-04T12:31:46.593Z,23.62
2018-09-04T12:34:15.472Z,23.43
2018-09-04T12:36:43.967Z,23.35
2018-09-04T12:39:12.579Z,23.55
2018-09-04T12:41:41.153Z,23.37
2018-09-04T12:44:09.889Z,23.28
2018-09-04T12:46:38.603Z,23.39
2018-09-04T12:49:07.118Z,23.26
2018-09-04T12:51:35.839Z,23.18
2018-09-04T12:54:04.443Z,23.21
2018-09-04T12:56:33.054Z,23.05
2018-09-04T12:59:01.566Z,22.99
2018-09-04T13:01:30.208Z,22.92
2018-09-04T13:03:59.714Z,22.86
2018-09-04T13:06:28.230Z,22.85
2018-09-04T13:08:56.969Z,22.78
2018-09-04T13:11:25.533Z,23.04
2018-09-04T13:13:54.422Z,23.05
2018-09-04T13:16:23.062Z,22.94
2018-09-04T13:18:51.858Z,22.47
2018-09-04T13:21:22.745Z,23.01
2018-09-04T13:23:54.093Z,22.90
2018-09-04T13:26:22.618Z,22.95
2018-09-04T13:28:51.226Z,22.93
2018-09-04T13:31:19.960Z,23.08
2018-09-04T13:33:48.643Z,23.15
2018-09-04T13:36:17.202Z,23.20
2018-09-04T13:38:46.021Z,23.13
2018-09-04T13:41:14.562Z,23.03
2018-09-04T13:43:43.203Z,23.01
2018-09-04T13:46:11.702Z,23.02
2018-09-04T13:48:40.332Z,23.01
2018-09-04T13:51:11.012Z,22.99
2018-09-04T13:53:39.662Z,22.90
2018-09-04T13:56:08.334Z,22.91
2018-09-04T13:58:36.790Z,22.91
2018-09-04T14:01:05.584Z,22.80
2018-09-04T14:03:35.248Z,22.77
2018-09-04T14:06:03.983Z,22.61
2018-09-04T14:08:32.458Z,22.86
2018-09-04T14:11:01.432Z,22.80
2018-09-04T14:13:29.890Z,22.80
2018-09-04T14:16:00.858Z,22.89
2018-09-04T14:18:29.354Z,22.92
2018-09-04T14:20:57.958Z,23.04
2018-09-04T14:23:26.495Z,23.08
2018-09-04T14:25:55.028Z,23.09
2018-09-04T14:28:40.964Z,22.92
2018-09-04T14:30:52.229Z,22.85
2018-09-04T14:33:21.109Z,22.29
2018-09-04T14:35:49.739Z,22.97
2018-09-04T14:38:21.664Z,23.00
2018-09-04T14:40:50.606Z,23.07
2018-09-04T14:43:19.343Z,23.10
2018-09-04T14:45:47.938Z,23.25
2018-09-04T14:48:16.590Z,23.44
2018-09-04T14:50:45.096Z,23.48
2018-09-04T14:53:13.726Z,23.61
2018-09-04T14:55:42.410Z,23.74
2018-09-04T14:58:10.996Z,23.76
2018-09-04T15:00:40.094Z,23.77
2018-09-04T15:03:08.683Z,23.81
2018-09-04T15:05:37.589Z,23.77
2018-09-04T15:08:06.154Z,23.81
2018-09-04T15:10:34.678Z,23.81
2018-09-04T15:13:04.355Z,23.74
2018-09-04T15:15:33.053Z,23.69
2018-09-04T15:18:01.947Z,23.60
2018-09-04T15:20:30.547Z,23.59
2018-09-04T15:22:59.310Z,23.32
2018-09-04T15:25:27.923Z,23.51
2018-09-04T15:27:56.714Z,23.51
2018-09-04T15:30:25.214Z,23.46
2018-09-04T15:32:55.889Z,23.42
2018-09-04T15:35:24.396Z,23.40
2018-09-04T15:37:53.050Z,23.25
2018-09-04T15:40:21.802Z,23.20
2018-09-04T15:42:50.384Z,23.12
2018-09-04T15:45:19.170Z,23.14
2018-09-04T15:47:47.654Z,23.17
2018-09-04T15:50:16.303Z,23.18
2018-09-04T15:52:44.830Z,23.11
2018-09-04T15:55:13.648Z,23.08
2018-09-04T15:57:42.206Z,23.02
2018-09-04T16:00:10.747Z,22.89
2018-09-04T16:02:39.298Z,22.79
2018-09-04T16:05:07.813Z,22.66
2018-09-04T16:07:36.744Z,22.56
2018-09-04T16:10:05.503Z,22.47
2018-09-04T16:12:34.186Z,22.32
2018-09-04T16:15:02.715Z,22.27
2018-09-04T16:17:31.343Z,22.21
2018-09-04T16:20:00.582Z,22.13
2018-09-04T16:22:29.422Z,22.08
2018-09-04T16:24:58.133Z,21.74
2018-09-04T16:27:26.691Z,21.94
2018-09-04T16:29:55.564Z,21.59
2018-09-04T16:32:24.210Z,21.78
2018-09-04T16:34:52.947Z,21.75
2018-09-04T16:37:21.366Z,21.72
2018-09-04T16:39:50.205Z,21.70
2018-09-04T16:42:18.698Z,21.64
2018-09-04T16:44:47.287Z,21.61
2018-09-04T16:47:15.995Z,21.54
2018-09-04T16:49:44.470Z,21.50
2018-09-04T16:52:13.303Z,21.41
2018-09-04T16:54:42.913Z,21.33
2018-09-04T16:57:11.723Z,20.95
2018-09-04T16:59:40.287Z,21.17
2018-09-04T17:02:08.904Z,21.15
2018-09-04T17:04:37.515Z,21.13
2018-09-04T17:07:06.046Z,21.10
2018-09-04T17:09:34.675Z,21.05
2018-09-04T17:12:03.188Z,21.00
2018-09-04T17:14:31.835Z,21.00
2018-09-04T17:17:00.326Z,20.93
2018-09-04T17:19:29.000Z,20.91
2018-09-04T17:21:57.711Z,20.88
2018-09-04T17:24:26.323Z,20.81
2018-09-04T17:26:54.893Z,20.77
2018-09-04T17:29:23.508Z,20.45
2018-09-04T17:31:52.171Z,20.69
2018-09-04T17:34:20.634Z,20.64
2018-09-04T17:36:50.328Z,20.59
2018-09-04T17:39:18.790Z,20.50
2018-09-04T17:41:47.530Z,20.41
2018-09-04T17:44:15.999Z,20.37
2018-09-04T17:46:44.605Z,20.36
2018-09-04T17:49:13.190Z,20.33
2018-09-04T17:51:42.403Z,20.27
2018-09-04T17:54:11.803Z,20.23
2018-09-04T17:56:40.409Z,20.16
2018-09-04T17:59:08.969Z,19.97
2018-09-04T18:01:37.493Z,19.96
2018-09-04T18:04:06.692Z,19.90
2018-09-04T18:06:35.238Z,19.93
2018-09-04T18:09:04.983Z,19.83
2018-09-04T18:11:33.618Z,19.75
2018-09-04T18:14:02.562Z,19.70
2018-09-04T18:16:31.756Z,19.64
2018-09-04T18:19:00.646Z,19.57
2018-09-04T18:21:29.331Z,19.51
2018-09-04T18:23:58.254Z,19.42
2018-09-04T18:26:26.854Z,19.36
2018-09-04T18:28:55.534Z,19.31
2018-09-04T18:31:24.175Z,19.23
2018-09-04T18:33:52.758Z,19.17
2018-09-04T18:36:21.875Z,19.11
2018-09-04T18:38:50.456Z,19.05
2018-09-04T18:41:19.300Z,18.77
2018-09-04T18:43:47.910Z,18.94
2018-09-04T18:46:16.834Z,18.88
2018-09-04T18:48:45.392Z,18.86
2018-09-04T18:51:14.193Z,18.82
2018-09-04T18:53:42.782Z,18.81
2018-09-04T18:56:11.250Z,18.76
2018-09-04T18:58:41.560Z,18.70
2018-09-04T19:01:10.155Z,18.62
2018-09-04T19:03:38.878Z,18.57
2018-09-04T19:06:07.447Z,18.53
2018-09-04T19:08:36.198Z,18.45
2018-09-04T19:11:05.246Z,18.42
2018-09-04T19:13:34.042Z,18.37
2018-09-04T19:16:02.764Z,18.32
2018-09-04T19:18:31.322Z,18.27
2018-09-04T19:21:00.015Z,18.23
2018-09-04T19:23:28.507Z,18.18
2018-09-04T19:25:57.334Z,18.14
2018-09-04T19:28:26.014Z,18.08
2018-09-04T19:30:54.788Z,17.74
2018-09-04T19:33:23.448Z,17.97
2018-09-04T19:35:52.280Z,17.91
2018-09-04T19:38:20.750Z,17.85
2018-09-04T19:40:49.242Z,17.81
2018-09-04T19:43:17.915Z,17.75
2018-09-04T19:45:46.955Z,17.71
2018-09-04T19:48:15.671Z,17.67
2018-09-04T19:50:44.371Z,17.58
2018-09-04T19:53:13.248Z,17.26
2018-09-04T19:55:42.446Z,17.43
2018-09-04T19:58:11.113Z,17.36
2018-09-04T20:00:39.990Z,17.32
2018-09-04T20:03:08.544Z,17.28
2018-09-04T20:05:37.084Z,17.24
2018-09-04T20:08:05.842Z,17.20
2018-09-04T20:10:34.414Z,16.88
2018-09-04T20:13:03.091Z,17.13
2018-09-04T20:15:31.992Z,17.11
2018-09-04T20:18:00.471Z,17.09
2018-09-04T20:20:29.262Z,17.08
2018-09-04T20:22:57.874Z,17.08
2018-09-04T20:25:26.507Z,17.07
2018-09-04T20:27:55.029Z,17.15
2018-09-04T20:30:23.539Z,17.19
2018-09-04T20:32:52.490Z,17.18
2018-09-04T20:35:21.031Z,17.18
2018-09-04T20:37:49.938Z,17.19
2018-09-04T20:40:18.446Z,17.19
2018-09-04T20:42:47.079Z,17.19
2018-09-04T20:45:15.658Z,17.18
2018-09-04T20:47:44.136Z,17.19
2018-09-04T20:50:12.936Z,17.19
2018-09-04T20:52:41.508Z,17.18
2018-09-04T20:55:10.416Z,17.19
2018-09-04T20:57:39.173Z,17.18
2018-09-04T21:00:25.934Z,17.16
2018-09-04T21:03:05.825Z,17.15
2018-09-04T21:05:45.724Z,17.15
2018-09-04T21:08:21.392Z,17.13
2018-09-04T21:10:50.538Z,17.13
2018-09-04T21:13:19.240Z,17.13
2018-09-04T21:15:47.786Z,17.13
2018-09-04T21:18:16.274Z,17.12
2018-09-04T21:20:45.080Z,17.11
2018-09-04T21:23:13.705Z,17.11
2018-09-04T21:25:42.392Z,17.11
2018-09-04T21:28:10.858Z,17.11
2018-09-04T21:30:39.454Z,17.10
2018-09-04T21:33:08.144Z,17.10
2018-09-04T21:35:36.622Z,17.09
2018-09-04T21:38:05.410Z,17.07
2018-09-04T21:40:33.878Z,17.07
2018-09-04T21:43:02.584Z,17.07
2018-09-04T21:45:31.077Z,17.06
2018-09-04T21:47:59.646Z,17.04
2018-09-04T21:50:28.189Z,17.03
2018-09-04T21:52:56.658Z,17.01
2018-09-04T21:55:25.553Z,16.57
2018-09-04T21:57:54.135Z,16.99
2018-09-04T22:00:25.659Z,16.41
2018-09-04T22:02:54.995Z,16.98
2018-09-04T22:05:25.226Z,16.72
2018-09-04T22:07:54.947Z,16.96
2018-09-04T22:10:23.982Z,16.96
2018-09-04T22:12:52.456Z,16.94
2018-09-04T22:15:21.462Z,16.94
2018-09-04T22:17:50.140Z,16.94
2018-09-04T22:20:18.793Z,16.93
2018-09-04T22:22:47.306Z,16.92
2018-09-04T22:25:15.846Z,16.92
2018-09-04T22:27:44.478Z,16.93
2018-09-04T22:30:13.086Z,16.92
2018-09-04T22:32:41.843Z,16.48
2018-09-04T22:35:10.476Z,16.90
2018-09-04T22:37:39.246Z,16.90
2018-09-04T22:40:08.046Z,16.88
2018-09-04T22:42:36.602Z,16.90
2018-09-04T22:45:05.310Z,16.88
2018-09-04T22:47:33.793Z,16.89
2018-09-04T22:50:07.507Z,16.87
2018-09-04T22:52:36.445Z,16.88
2018-09-04T22:55:07.359Z,16.88
2018-09-04T22:57:36.069Z,16.64
2018-09-04T23:00:04.637Z,16.88
2018-09-04T23:02:33.736Z,16.88
2018-09-04T23:05:02.786Z,16.88
2018-09-04T23:07:31.520Z,16.88
2018-09-04T23:10:00.211Z,16.89
2018-09-04T23:12:28.829Z,16.88
2018-09-04T23:14:57.425Z,16.87
2018-09-04T23:17:26.118Z,16.88
2018-09-04T23:19:54.596Z,16.89
2018-09-04T23:22:23.170Z,16.90
2018-09-04T23:24:51.898Z,16.35
2018-09-04T23:27:20.498Z,16.91
2018-09-04T23:29:49.876Z,16.92
2018-09-04T23:32:19.245Z,16.92
2018-09-04T23:34:48.116Z,16.94
2018-09-04T23:37:16.574Z,16.93
2018-09-04T23:39:45.078Z,16.93
2018-09-04T23:42:13.734Z,16.76
2018-09-04T23:44:42.226Z,16.94
2018-09-04T23:47:11.104Z,16.94
2018-09-04T23:49:39.626Z,16.93
2018-09-04T23:52:08.702Z,16.92
2018-09-04T23:54:37.175Z,16.93
2018-09-04T23:57:06.006Z,16.92
2018-09-04T23:59:34.577Z,16.91
